Nearby METAR Reports

 

KMTN - Baltimore/Martin, Maryland, USA
Distance from station: SSE 8mi, 13km
Updated: Sun, 29-Mar-2015 6:45pm EDT
Clear
Clear
 Wind from SSE
Wind: SSE 12 mph , 19 km/h
Temperature: 41°F , 5°C
Wind Chill: 34°F , 1°C
Dew Point: 25°F , -4°C
Humidity: 53%
Barometer: 30.22 inHg , 1023.4 hPa
Clouds: Clear
Visibility: 10 miles , 16 km
2015/03/29 22:45 KMTN 292245Z 16010KT 10SM SKC 05/M04 A3022
KDMH - Baltimore/Dwntwn, Maryland, USA
Distance from station: SW 12mi, 19km
Updated: Sun, 29-Mar-2015 9:54am EDT
NOT Current

 
Temperature: 32°F , 0°C
Dew Point: 7°F , -14°C
Humidity: 34%
Barometer: 30.39 inHg , 1029.1 hPa
2015/03/29 13:54 KDMH 291354Z AUTO 00/M14 A3039 RMK AO1 SLP291 T00001144
 
KBWI - Balto/Wash Intl, Maryland, USA
Distance from station: SSW 20mi, 33km
Updated: Sun, 29-Mar-2015 6:54pm EDT
Partly cloudy
Partly cloudy
 Wind from SW
Wind: SW 5 mph , 7 km/h
Temperature: 43°F , 6°C
Wind Chill: 40°F , 4°C
Dew Point: 7°F , -14°C
Humidity: 22%
Barometer: 30.19 inHg , 1022.4 hPa
Clouds: Partly cloudy
Visibility: 10 miles , 16 km
Cloud details: Partly cloudy 25000 ft
2015/03/29 22:54 KBWI 292254Z 22004KT 10SM SCT250 06/M14 A3019 RMK AO2 SLP226 T00561139
KDMW - Carroll Cnty, Maryland, USA
Distance from station: WNW 30mi, 48km
Updated: Sun, 29-Mar-2015 7:30pm EDT
Clear
Clear
 Wind from S
Wind: S 3 mph , 6 km/h
Temperature: 39°F , 4°C
Dew Point: 3°F , -16°C
Humidity: 22%
Barometer: 30.16 inHg , 1021.3 hPa
Clouds: Clear
Visibility: 10 miles , 16 km
2015/03/29 23:30 KDMW 292330Z AUTO 19003KT 10SM CLR 04/M16 A3016 RMK AO2
 
KNAK - Annapolis/Naval, Maryland, USA
Distance from station: S 30mi, 48km
Updated: Sun, 29-Mar-2015 6:54pm EDT
Clear
Clear
 Wind from S
Wind: S 8 mph , 13 km/h
Temperature: 39°F , 4°C
Wind Chill: 33°F , 1°C
Dew Point: 19°F , -7°C
Humidity: 45%
Barometer: 30.23 inHg , 1023.7 hPa
Clouds: Clear
Visibility: 10 miles , 16 km
2015/03/29 22:54 KNAK 292254Z AUTO 17007KT 10SM CLR 04/M07 A3023 RMK AO2 SLP237 T00441072
KW29 - Stevensville, Maryland, USA
Distance from station: SSE 31mi, 50km
Updated: Sun, 29-Mar-2015 7:32pm EDT

 Wind from S
Wind: S 7 mph , 11 km/h
Temperature: 39°F , 4°C
Wind Chill: 34°F , 1°C
Dew Point: 18°F , -8°C
Humidity: 42%
Barometer: 30.22 inHg , 1023.4 hPa
Visibility: 10 miles , 16 km
2015/03/29 23:32 KW29 292332Z AUTO 18006KT 10SM 04/M08 A3022 RMK AO1
 
KCGS - College Park, Maryland, USA
Distance from station: SW 38mi, 61km
Updated: Sun, 29-Mar-2015 7:30pm EDT
Clear
Clear
 Wind from S
Wind: S 3 mph , 6 km/h
Temperature: 45°F , 7°C
Dew Point: 3°F , -16°C
Humidity: 18%
Clouds: Clear
Visibility: 10 miles , 16 km
2015/03/29 23:30 KCGS 292330Z AUTO 18003KT 10SM CLR 07/M16 RMK AO1
KGAI - Gaithersburg, Maryland, USA
Distance from station: WSW 40mi, 65km
Updated: Sun, 29-Mar-2015 7:35pm EDT
Clear
Clear
 Wind from S
Wind: S 3 mph , 6 km/h
Temperature: 39°F , 4°C
Dew Point: 5°F , -15°C
Humidity: 24%
Barometer: 30.22 inHg , 1023.4 hPa
Clouds: Clear
Visibility: 10 miles , 16 km
2015/03/29 23:35 KGAI 292335Z AUTO 17003KT 10SM CLR 04/M15 A3022 RMK AO1
 
KTHV - York, Pennsylvania, USA
Distance from station: NNW 40mi, 65km
Updated: Sun, 29-Mar-2015 6:53pm EDT
Clear
Clear
 Wind from SSW
Wind: SSW 8 mph , 13 km/h
Temperature: 41°F , 5°C
Wind Chill: 36°F , 2°C
Dew Point: 9°F , -13°C
Humidity: 26%
Barometer: 30.16 inHg , 1021.3 hPa
Clouds: Clear
Visibility: 10 miles , 16 km
2015/03/29 22:53 KTHV 292253Z AUTO 20007KT 10SM CLR 05/M13 A3016 RMK AO2 SLP219 T00501128
KFDK - Frederick, Maryland, USA
Distance from station: W 47mi, 75km
Updated: Sun, 29-Mar-2015 6:49pm EDT
Clear
Clear
 Wind from S
Wind: S 6 mph , 9 km/h
Temperature: 45°F , 7°C
Wind Chill: 42°F , 6°C
Dew Point: -6°F , -21°C
Humidity: 12%
Barometer: 30.20 inHg , 1022.7 hPa
Clouds: Clear
Visibility: 10 miles , 16 km
2015/03/29 22:49 KFDK 292249Z 18005KT 10SM SKC 07/M21 A3020
 
KESN - Easton/Newnam, Maryland, USA
Distance from station: SSE 48mi, 78km
Updated: Sun, 29-Mar-2015 6:50pm EDT
Few Clouds
Few Clouds
 Wind from calm
Wind: Calm
Temperature: 43°F , 6°C
Dew Point: 16°F , -9°C
Humidity: 34%
Barometer: 30.27 inHg , 1025.1 hPa
Clouds: Few Clouds
Visibility: 10 miles , 16 km
Cloud details: Few Clouds 25000 ft
2015/03/29 22:50 KESN 292250Z 00000KT 10SM FEW250 06/M09 A3027
KDCA - Washington/Natl, Washington D.c., USA
Distance from station: SW 49mi, 79km
Updated: Sun, 29-Mar-2015 6:52pm EDT
Partly cloudy
Partly cloudy
 Wind from SSW
Wind: SSW 7 mph , 11 km/h
Temperature: 46°F , 8°C
Wind Chill: 42°F , 6°C
Dew Point: 7°F , -14°C
Humidity: 20%
Barometer: 30.23 inHg , 1023.7 hPa
Clouds: Partly cloudy
Visibility: 10 miles , 16 km
Cloud details: Partly cloudy 25000 ft
2015/03/29 22:52 KDCA 292252Z 20006KT 10SM SCT250 08/M14 A3023 RMK AO2 SLP235 T00781144 $
 
KLNS - Lancaster, Pennsylvania, USA
Distance from station: N 49mi, 79km
Updated: Sun, 29-Mar-2015 6:53pm EDT
Clear
Clear
 Wind from SW
Wind: SW 9 mph , 15 km/h
Temperature: 43°F , 6°C
Wind Chill: 38°F , 3°C
Dew Point: 7°F , -14°C
Humidity: 22%
Barometer: 30.15 inHg , 1021 hPa
Clouds: Clear
Visibility: 10 miles , 16 km
2015/03/29 22:53 KLNS 292253Z 22008KT 10SM CLR 06/M14 A3015 RMK AO2 SLP215 T00561144
KILG - Wilmington, Delaware, USA
Distance from station: ENE 50mi, 81km
Updated: Sun, 29-Mar-2015 6:51pm EDT
Clear
Clear
 Wind from WSW
Wind: WSW 8 mph , 13 km/h
Temperature: 43°F , 6°C
Wind Chill: 38°F , 3°C
Dew Point: 7°F , -14°C
Humidity: 22%
Barometer: 30.21 inHg , 1023 hPa
Clouds: Clear
Visibility: 10 miles , 16 km
2015/03/29 22:51 KILG 292251Z 24007KT 10SM CLR 06/M14 A3021 RMK AO2 SLP230 T00611144